GLD1620 SBBE-SBFZ
Flight info
| Callsign | GLD1620 |
|---|---|
| Flight time | 1h 42m |
| Altitude | 39000 |
| Route | ITAK1A ITAKI UZ81 CROMO |
| Aircraft | A20N/M-SDE2E3FGHIRWXY/LB1 |
Departure
| Time | 2026-04-29 02:04 |
|---|---|
| Airport | Val de Cans/Júlio Cezar Ribeiro International Airport (SBBE) |
Arrival
| Time | 2026-04-29 03:47 |
|---|---|
| Airport | Pinto Martins International Airport (SBFZ) |
| Time | Latitude | Longitude | Altitude | Speed | Heading |
|---|---|---|---|---|---|
| 2026-04-29 01:58 | -1.38208 | -48.48090 | 47 ft | 0 kts | 237° |
| 2026-04-29 02:01 | -1.38239 | -48.48118 | 47 ft | 11 kts | 221° |
| 2026-04-29 02:02 | -1.38307 | -48.48127 | 47 ft | 11 kts | 127° |
| 2026-04-29 02:02 | -1.38351 | -48.48097 | 47 ft | 13 kts | 152° |
| 2026-04-29 02:02 | -1.38437 | -48.48124 | 46 ft | 16 kts | 221° |
| 2026-04-29 02:02 | -1.38532 | -48.48214 | 45 ft | 21 kts | 225° |
| 2026-04-29 02:03 | -1.38647 | -48.48332 | 43 ft | 26 kts | 226° |
| 2026-04-29 02:03 | -1.38751 | -48.48475 | 44 ft | 25 kts | 243° |
| 2026-04-29 02:03 | -1.38776 | -48.48486 | 44 ft | 4 kts | 121° |
| 2026-04-29 02:03 | -1.38762 | -48.48448 | 42 ft | 10 kts | 65° |
| 2026-04-29 02:04 | -1.38653 | -48.48343 | 43 ft | 62 kts | 46° |
| 2026-04-29 02:04 | -1.38088 | -48.47772 | 70 ft | 160 kts | 46° |
| 2026-04-29 02:04 | -1.37217 | -48.46873 | 624 ft | 199 kts | 47° |
| 2026-04-29 02:04 | -1.36170 | -48.45756 | 1267 ft | 242 kts | 47° |
| 2026-04-29 02:05 | -1.34968 | -48.44441 | 2004 ft | 262 kts | 48° |
| 2026-04-29 02:05 | -1.33829 | -48.43175 | 2593 ft | 229 kts | 49° |
| 2026-04-29 02:05 | -1.32943 | -48.41920 | 3168 ft | 230 kts | 71° |
| 2026-04-29 02:05 | -1.32825 | -48.40328 | 4160 ft | 230 kts | 100° |
| 2026-04-29 02:06 | -1.33524 | -48.38841 | 4824 ft | 246 kts | 128° |
| 2026-04-29 02:06 | -1.34653 | -48.37571 | 6242 ft | 243 kts | 129° |
| 2026-04-29 02:06 | -1.35596 | -48.36152 | 7416 ft | 249 kts | 116° |
| 2026-04-29 02:06 | -1.36190 | -48.34514 | 8561 ft | 254 kts | 104° |
| 2026-04-29 02:07 | -1.36666 | -48.32815 | 9704 ft | 260 kts | 107° |
| 2026-04-29 02:07 | -1.37297 | -48.31078 | 10721 ft | 270 kts | 110° |
| 2026-04-29 02:07 | -1.37958 | -48.29232 | 11326 ft | 294 kts | 109° |
| 2026-04-29 02:07 | -1.38649 | -48.27216 | 11867 ft | 319 kts | 108° |
| 2026-04-29 02:08 | -1.39395 | -48.25045 | 12371 ft | 342 kts | 108° |
| 2026-04-29 02:08 | -1.40186 | -48.22768 | 13260 ft | 349 kts | 109° |
| 2026-04-29 02:08 | -1.40992 | -48.20465 | 14223 ft | 353 kts | 109° |
| 2026-04-29 02:08 | -1.41812 | -48.18133 | 15106 ft | 358 kts | 109° |
| 2026-04-29 02:09 | -1.42645 | -48.15765 | 15972 ft | 363 kts | 109° |
| 2026-04-29 02:09 | -1.43488 | -48.13372 | 16816 ft | 368 kts | 109° |
| 2026-04-29 02:09 | -1.44328 | -48.10985 | 17639 ft | 373 kts | 109° |
| 2026-04-29 02:09 | -1.45193 | -48.08526 | 18415 ft | 378 kts | 109° |
| 2026-04-29 02:10 | -1.46073 | -48.06027 | 19131 ft | 382 kts | 109° |
| 2026-04-29 02:10 | -1.46955 | -48.03519 | 19847 ft | 385 kts | 109° |
| 2026-04-29 02:10 | -1.47850 | -48.00976 | 20556 ft | 389 kts | 109° |
| 2026-04-29 02:10 | -1.48752 | -47.98410 | 21243 ft | 393 kts | 109° |
| 2026-04-29 02:11 | -1.49663 | -47.95820 | 21928 ft | 398 kts | 109° |
| 2026-04-29 02:11 | -1.50583 | -47.93200 | 22613 ft | 401 kts | 109° |
| 2026-04-29 02:11 | -1.51514 | -47.90554 | 23270 ft | 406 kts | 109° |
| 2026-04-29 02:11 | -1.52454 | -47.87880 | 23881 ft | 409 kts | 109° |
| 2026-04-29 02:12 | -1.53398 | -47.85196 | 24443 ft | 412 kts | 109° |
| 2026-04-29 02:12 | -1.54338 | -47.82521 | 24997 ft | 415 kts | 109° |
| 2026-04-29 02:12 | -1.55298 | -47.79790 | 25540 ft | 418 kts | 109° |
| 2026-04-29 02:12 | -1.56267 | -47.77036 | 26084 ft | 421 kts | 109° |
| 2026-04-29 02:13 | -1.57242 | -47.74263 | 26615 ft | 424 kts | 109° |
| 2026-04-29 02:13 | -1.58223 | -47.71471 | 27135 ft | 428 kts | 109° |
| 2026-04-29 02:13 | -1.59213 | -47.68654 | 27629 ft | 431 kts | 109° |
| 2026-04-29 02:13 | -1.60208 | -47.65825 | 28124 ft | 434 kts | 109° |
| 2026-04-29 02:14 | -1.61211 | -47.62970 | 28606 ft | 437 kts | 109° |
| 2026-04-29 02:14 | -1.62208 | -47.60136 | 29071 ft | 440 kts | 108° |
| 2026-04-29 02:14 | -1.63224 | -47.57245 | 29538 ft | 443 kts | 108° |
| 2026-04-29 02:14 | -1.64248 | -47.54331 | 29991 ft | 446 kts | 108° |
| 2026-04-29 02:15 | -1.65279 | -47.51397 | 30383 ft | 449 kts | 108° |
| 2026-04-29 02:15 | -1.66319 | -47.48439 | 30760 ft | 453 kts | 109° |
| 2026-04-29 02:15 | -1.67365 | -47.45460 | 31167 ft | 455 kts | 109° |
| 2026-04-29 02:15 | -1.68411 | -47.42481 | 31655 ft | 456 kts | 109° |
| 2026-04-29 02:16 | -1.69402 | -47.39471 | 32171 ft | 455 kts | 105° |
| 2026-04-29 02:16 | -1.70262 | -47.36419 | 32667 ft | 455 kts | 105° |
| 2026-04-29 02:16 | -1.71124 | -47.33378 | 33186 ft | 455 kts | 106° |
| 2026-04-29 02:16 | -1.71989 | -47.30341 | 33675 ft | 454 kts | 106° |
| 2026-04-29 02:17 | -1.72855 | -47.27302 | 34141 ft | 454 kts | 106° |
| 2026-04-29 02:17 | -1.73708 | -47.24307 | 34554 ft | 454 kts | 106° |
| 2026-04-29 02:17 | -1.74571 | -47.21279 | 34966 ft | 453 kts | 106° |
| 2026-04-29 02:17 | -1.75434 | -47.18252 | 35373 ft | 453 kts | 106° |
| 2026-04-29 02:18 | -1.76298 | -47.15219 | 35778 ft | 453 kts | 106° |
| 2026-04-29 02:18 | -1.77159 | -47.12194 | 36189 ft | 453 kts | 106° |
| 2026-04-29 02:18 | -1.78024 | -47.09155 | 36604 ft | 453 kts | 106° |
| 2026-04-29 02:18 | -1.78888 | -47.06124 | 37013 ft | 453 kts | 106° |
| 2026-04-29 02:19 | -1.79750 | -47.03096 | 37417 ft | 453 kts | 106° |
| 2026-04-29 02:19 | -1.80612 | -47.00067 | 37818 ft | 453 kts | 106° |
| 2026-04-29 02:19 | -1.81473 | -46.97041 | 38231 ft | 452 kts | 105° |
| 2026-04-29 02:19 | -1.82323 | -46.94058 | 38635 ft | 452 kts | 105° |
| 2026-04-29 02:20 | -1.83180 | -46.91045 | 38897 ft | 451 kts | 105° |
| 2026-04-29 02:20 | -1.84036 | -46.88037 | 38976 ft | 449 kts | 105° |
| 2026-04-29 02:20 | -1.85741 | -46.82048 | 38977 ft | 447 kts | 105° |
| 2026-04-29 02:21 | -1.87437 | -46.76087 | 38978 ft | 446 kts | 105° |
| 2026-04-29 02:21 | -1.89130 | -46.70134 | 38971 ft | 445 kts | 105° |
| 2026-04-29 02:22 | -1.90823 | -46.64183 | 38976 ft | 445 kts | 105° |
| 2026-04-29 02:22 | -1.92502 | -46.58279 | 38978 ft | 444 kts | 105° |
| 2026-04-29 02:23 | -1.94191 | -46.52343 | 38976 ft | 444 kts | 105° |
| 2026-04-29 02:23 | -1.95879 | -46.46405 | 38960 ft | 444 kts | 105° |
| 2026-04-29 02:24 | -1.97566 | -46.40471 | 38966 ft | 444 kts | 105° |
| 2026-04-29 02:25 | -2.00084 | -46.31615 | 38960 ft | 444 kts | 105° |
| 2026-04-29 02:25 | -2.01770 | -46.25681 | 38960 ft | 444 kts | 105° |
| 2026-04-29 02:26 | -2.03454 | -46.19757 | 38959 ft | 444 kts | 105° |
| 2026-04-29 02:26 | -2.05141 | -46.13818 | 38973 ft | 444 kts | 105° |
| 2026-04-29 02:27 | -2.06816 | -46.07922 | 38967 ft | 444 kts | 106° |
| 2026-04-29 02:27 | -2.08505 | -46.01975 | 38973 ft | 444 kts | 106° |
| 2026-04-29 02:28 | -2.10193 | -45.96031 | 38974 ft | 444 kts | 106° |
| 2026-04-29 02:28 | -2.11879 | -45.90091 | 38978 ft | 444 kts | 106° |
| 2026-04-29 02:29 | -2.13565 | -45.84153 | 38977 ft | 444 kts | 106° |
| 2026-04-29 02:29 | -2.15243 | -45.78241 | 38974 ft | 444 kts | 106° |
| 2026-04-29 02:30 | -2.16929 | -45.72301 | 38966 ft | 444 kts | 106° |
| 2026-04-29 02:30 | -2.18616 | -45.66356 | 38968 ft | 445 kts | 106° |
| 2026-04-29 02:31 | -2.20304 | -45.60405 | 38976 ft | 445 kts | 106° |
| 2026-04-29 02:31 | -2.21990 | -45.54460 | 38968 ft | 445 kts | 106° |
| 2026-04-29 02:32 | -2.23669 | -45.48539 | 38960 ft | 445 kts | 106° |
| 2026-04-29 02:32 | -2.25359 | -45.42580 | 38968 ft | 446 kts | 106° |
| 2026-04-29 02:33 | -2.27048 | -45.36624 | 38975 ft | 446 kts | 106° |
| 2026-04-29 02:33 | -2.28740 | -45.30655 | 38964 ft | 446 kts | 106° |
| 2026-04-29 02:34 | -2.30434 | -45.24676 | 38963 ft | 447 kts | 106° |
| 2026-04-29 02:34 | -2.32125 | -45.18705 | 38977 ft | 447 kts | 106° |
| 2026-04-29 02:35 | -2.33809 | -45.12760 | 38975 ft | 447 kts | 106° |
| 2026-04-29 02:35 | -2.35499 | -45.06791 | 38981 ft | 447 kts | 106° |
| 2026-04-29 02:36 | -2.37194 | -45.00807 | 38972 ft | 447 kts | 106° |
| 2026-04-29 02:36 | -2.38886 | -44.94830 | 38971 ft | 447 kts | 106° |
| 2026-04-29 02:37 | -2.40566 | -44.88895 | 38977 ft | 447 kts | 106° |
| 2026-04-29 02:37 | -2.42254 | -44.82932 | 38979 ft | 446 kts | 106° |
| 2026-04-29 02:38 | -2.43949 | -44.76947 | 38969 ft | 446 kts | 106° |
| 2026-04-29 02:38 | -2.45637 | -44.70985 | 38957 ft | 446 kts | 106° |
| 2026-04-29 02:39 | -2.47328 | -44.65013 | 38977 ft | 446 kts | 106° |
| 2026-04-29 02:39 | -2.49014 | -44.59054 | 38961 ft | 446 kts | 106° |
| 2026-04-29 02:40 | -2.50700 | -44.53095 | 38959 ft | 446 kts | 106° |
| 2026-04-29 02:40 | -2.52390 | -44.47119 | 38956 ft | 446 kts | 106° |
| 2026-04-29 02:41 | -2.54077 | -44.41157 | 38958 ft | 446 kts | 106° |
| 2026-04-29 02:41 | -2.55766 | -44.35181 | 38961 ft | 447 kts | 106° |
| 2026-04-29 02:42 | -2.57445 | -44.29244 | 38962 ft | 447 kts | 106° |
| 2026-04-29 02:42 | -2.59092 | -44.23246 | 38963 ft | 448 kts | 103° |
| 2026-04-29 02:43 | -2.60368 | -44.17145 | 38962 ft | 448 kts | 102° |
| 2026-04-29 02:43 | -2.61655 | -44.11037 | 38966 ft | 449 kts | 102° |
| 2026-04-29 02:44 | -2.62935 | -44.04966 | 38966 ft | 450 kts | 102° |
| 2026-04-29 02:44 | -2.64233 | -43.98801 | 38970 ft | 450 kts | 102° |
| 2026-04-29 02:45 | -2.65516 | -43.92704 | 38971 ft | 451 kts | 102° |
| 2026-04-29 02:45 | -2.66808 | -43.86566 | 38976 ft | 451 kts | 102° |
| 2026-04-29 02:46 | -2.68103 | -43.80417 | 38981 ft | 452 kts | 102° |
| 2026-04-29 02:46 | -2.69397 | -43.74272 | 38976 ft | 452 kts | 102° |
| 2026-04-29 02:47 | -2.70692 | -43.68121 | 38974 ft | 452 kts | 102° |
| 2026-04-29 02:47 | -2.71976 | -43.62017 | 38979 ft | 452 kts | 102° |
| 2026-04-29 02:48 | -2.73270 | -43.55874 | 38973 ft | 451 kts | 102° |
| 2026-04-29 02:48 | -2.74566 | -43.49741 | 38988 ft | 450 kts | 102° |
| 2026-04-29 02:49 | -2.75863 | -43.43608 | 38972 ft | 450 kts | 102° |
| 2026-04-29 02:49 | -2.77154 | -43.37499 | 38971 ft | 449 kts | 102° |
| 2026-04-29 02:50 | -2.78434 | -43.31437 | 38977 ft | 448 kts | 102° |
| 2026-04-29 02:50 | -2.79718 | -43.25354 | 38971 ft | 447 kts | 102° |
| 2026-04-29 02:51 | -2.80998 | -43.19287 | 38968 ft | 445 kts | 102° |
| 2026-04-29 02:51 | -2.82276 | -43.13230 | 38970 ft | 444 kts | 102° |
| 2026-04-29 02:52 | -2.83549 | -43.07193 | 38962 ft | 443 kts | 102° |
| 2026-04-29 02:52 | -2.84819 | -43.01170 | 40426 ft | 446 kts | 102° |
| 2026-04-29 02:52 | -2.85469 | -42.98085 | 40040 ft | 458 kts | 102° |
| 2026-04-29 02:53 | -2.86126 | -42.94967 | 39675 ft | 457 kts | 102° |
| 2026-04-29 02:53 | -2.86764 | -42.91940 | 39309 ft | 453 kts | 102° |
| 2026-04-29 02:53 | -2.87413 | -42.88861 | 39007 ft | 450 kts | 102° |
| 2026-04-29 02:54 | -2.88707 | -42.82720 | 39005 ft | 455 kts | 102° |
| 2026-04-29 02:54 | -2.90010 | -42.76534 | 39006 ft | 454 kts | 102° |
| 2026-04-29 02:55 | -2.91313 | -42.70346 | 38997 ft | 454 kts | 102° |
| 2026-04-29 02:55 | -2.92607 | -42.64198 | 39005 ft | 454 kts | 102° |
| 2026-04-29 02:56 | -2.93907 | -42.58023 | 38998 ft | 454 kts | 102° |
| 2026-04-29 02:56 | -2.95209 | -42.51833 | 39007 ft | 454 kts | 102° |
| 2026-04-29 02:57 | -2.96511 | -42.45642 | 39008 ft | 455 kts | 102° |
| 2026-04-29 02:57 | -2.97811 | -42.39460 | 39006 ft | 455 kts | 102° |
| 2026-04-29 02:58 | -2.99114 | -42.33259 | 39011 ft | 455 kts | 102° |
| 2026-04-29 02:58 | -3.00413 | -42.27076 | 39002 ft | 455 kts | 102° |
| 2026-04-29 02:59 | -3.01714 | -42.20885 | 39009 ft | 455 kts | 102° |
| 2026-04-29 02:59 | -3.03015 | -42.14691 | 39010 ft | 455 kts | 102° |
| 2026-04-29 03:00 | -3.04286 | -42.08500 | 39005 ft | 455 kts | 102° |
| 2026-04-29 03:00 | -3.05540 | -42.02308 | 39004 ft | 455 kts | 102° |
| 2026-04-29 03:01 | -3.06793 | -41.96147 | 38998 ft | 455 kts | 102° |
| 2026-04-29 03:01 | -3.08054 | -41.89952 | 39010 ft | 454 kts | 102° |
| 2026-04-29 03:02 | -3.09317 | -41.83750 | 39010 ft | 454 kts | 102° |
| 2026-04-29 03:02 | -3.10576 | -41.77563 | 38998 ft | 454 kts | 102° |
| 2026-04-29 03:03 | -3.11846 | -41.71404 | 39000 ft | 454 kts | 102° |
| 2026-04-29 03:03 | -3.13135 | -41.65215 | 39009 ft | 454 kts | 102° |
| 2026-04-29 03:04 | -3.14428 | -41.58985 | 39006 ft | 454 kts | 102° |
| 2026-04-29 03:04 | -3.15704 | -41.52832 | 38999 ft | 454 kts | 102° |
| 2026-04-29 03:05 | -3.16985 | -41.46647 | 39001 ft | 454 kts | 102° |
| 2026-04-29 03:05 | -3.18269 | -41.40452 | 39004 ft | 454 kts | 102° |
| 2026-04-29 03:06 | -3.19551 | -41.34262 | 39007 ft | 454 kts | 102° |
| 2026-04-29 03:06 | -3.20832 | -41.28074 | 38997 ft | 454 kts | 102° |
| 2026-04-29 03:07 | -3.22106 | -41.21918 | 39004 ft | 454 kts | 102° |
| 2026-04-29 03:07 | -3.23387 | -41.15727 | 38999 ft | 454 kts | 102° |
| 2026-04-29 03:08 | -3.24669 | -41.09528 | 39010 ft | 454 kts | 102° |
| 2026-04-29 03:08 | -3.25948 | -41.03344 | 38999 ft | 454 kts | 102° |
| 2026-04-29 03:09 | -3.27220 | -40.97189 | 39005 ft | 454 kts | 102° |
| 2026-04-29 03:09 | -3.28500 | -40.90997 | 38997 ft | 454 kts | 102° |
| 2026-04-29 03:10 | -3.29778 | -40.84804 | 39010 ft | 454 kts | 102° |
| 2026-04-29 03:10 | -3.31056 | -40.78603 | 39007 ft | 454 kts | 102° |
| 2026-04-29 03:11 | -3.32331 | -40.72414 | 39001 ft | 454 kts | 102° |
| 2026-04-29 03:11 | -3.33607 | -40.66219 | 39010 ft | 454 kts | 102° |
| 2026-04-29 03:12 | -3.34882 | -40.60025 | 38999 ft | 454 kts | 102° |
| 2026-04-29 03:12 | -3.36157 | -40.53829 | 39009 ft | 454 kts | 102° |
| 2026-04-29 03:13 | -3.37428 | -40.47629 | 39004 ft | 454 kts | 102° |
| 2026-04-29 03:13 | -3.38691 | -40.41427 | 39010 ft | 454 kts | 102° |
| 2026-04-29 03:14 | -3.39740 | -40.36280 | 39010 ft | 454 kts | 102° |
| 2026-04-29 03:14 | -3.41207 | -40.29082 | 39006 ft | 454 kts | 102° |
| 2026-04-29 03:15 | -3.42470 | -40.22889 | 38998 ft | 454 kts | 102° |
| 2026-04-29 03:15 | -3.43520 | -40.17735 | 39001 ft | 454 kts | 102° |
| 2026-04-29 03:16 | -3.44616 | -40.11457 | 39009 ft | 455 kts | 98° |
| 2026-04-29 03:16 | -3.45472 | -40.05232 | 39009 ft | 454 kts | 98° |
| 2026-04-29 03:17 | -3.46528 | -39.98998 | 39000 ft | 454 kts | 102° |
| 2026-04-29 03:17 | -3.47860 | -39.92816 | 39008 ft | 454 kts | 102° |
| 2026-04-29 03:18 | -3.49169 | -39.86676 | 38617 ft | 447 kts | 102° |
| 2026-04-29 03:18 | -3.49815 | -39.83646 | 38128 ft | 443 kts | 102° |
| 2026-04-29 03:18 | -3.50447 | -39.80684 | 37621 ft | 439 kts | 102° |
| 2026-04-29 03:18 | -3.51080 | -39.77713 | 37111 ft | 435 kts | 102° |
| 2026-04-29 03:19 | -3.51708 | -39.74772 | 36607 ft | 430 kts | 102° |
| 2026-04-29 03:19 | -3.52329 | -39.71856 | 36105 ft | 425 kts | 102° |
| 2026-04-29 03:19 | -3.52944 | -39.68972 | 35596 ft | 421 kts | 102° |
| 2026-04-29 03:19 | -3.53553 | -39.66117 | 35061 ft | 418 kts | 102° |
| 2026-04-29 03:20 | -3.54156 | -39.63286 | 34550 ft | 414 kts | 102° |
| 2026-04-29 03:20 | -3.54754 | -39.60482 | 34033 ft | 411 kts | 102° |
| 2026-04-29 03:20 | -3.55348 | -39.57696 | 33533 ft | 407 kts | 102° |
| 2026-04-29 03:20 | -3.55937 | -39.54927 | 33015 ft | 404 kts | 102° |
| 2026-04-29 03:21 | -3.56513 | -39.52227 | 32515 ft | 401 kts | 102° |
| 2026-04-29 03:21 | -3.57091 | -39.49514 | 32011 ft | 397 kts | 102° |
| 2026-04-29 03:21 | -3.57664 | -39.46820 | 31508 ft | 394 kts | 102° |
| 2026-04-29 03:21 | -3.58232 | -39.44152 | 31005 ft | 391 kts | 102° |
| 2026-04-29 03:22 | -3.58797 | -39.41501 | 30502 ft | 388 kts | 102° |
| 2026-04-29 03:22 | -3.59356 | -39.38874 | 30011 ft | 384 kts | 102° |
| 2026-04-29 03:22 | -3.59908 | -39.36278 | 29511 ft | 381 kts | 102° |
| 2026-04-29 03:22 | -3.60461 | -39.33681 | 29014 ft | 378 kts | 102° |
| 2026-04-29 03:23 | -3.61007 | -39.31115 | 28521 ft | 375 kts | 102° |
| 2026-04-29 03:23 | -3.61541 | -39.28603 | 28036 ft | 372 kts | 102° |
| 2026-04-29 03:23 | -3.62078 | -39.26078 | 27548 ft | 369 kts | 102° |
| 2026-04-29 03:23 | -3.62693 | -39.23605 | 27051 ft | 366 kts | 111° |
| 2026-04-29 03:24 | -3.63963 | -39.21423 | 26546 ft | 362 kts | 131° |
| 2026-04-29 03:24 | -3.65876 | -39.19825 | 26035 ft | 358 kts | 152° |
| 2026-04-29 03:24 | -3.68201 | -39.18993 | 25534 ft | 354 kts | 169° |
| 2026-04-29 03:24 | -3.70618 | -39.18553 | 25054 ft | 352 kts | 170° |
| 2026-04-29 03:25 | -3.73020 | -39.18126 | 24585 ft | 349 kts | 170° |
| 2026-04-29 03:25 | -3.75396 | -39.17694 | 24120 ft | 346 kts | 170° |
| 2026-04-29 03:25 | -3.77757 | -39.17252 | 23654 ft | 344 kts | 169° |
| 2026-04-29 03:25 | -3.80136 | -39.16799 | 23189 ft | 341 kts | 169° |
| 2026-04-29 03:26 | -3.82455 | -39.16354 | 22727 ft | 339 kts | 169° |
| 2026-04-29 03:26 | -3.84765 | -39.15909 | 22274 ft | 336 kts | 169° |
| 2026-04-29 03:26 | -3.87057 | -39.15467 | 21822 ft | 334 kts | 169° |
| 2026-04-29 03:26 | -3.89328 | -39.15029 | 21374 ft | 332 kts | 169° |
| 2026-04-29 03:27 | -3.91588 | -39.14593 | 20927 ft | 329 kts | 169° |
| 2026-04-29 03:27 | -3.93829 | -39.14161 | 20482 ft | 327 kts | 169° |
| 2026-04-29 03:27 | -3.96055 | -39.13732 | 20044 ft | 325 kts | 169° |
| 2026-04-29 03:27 | -3.98295 | -39.13300 | 19593 ft | 322 kts | 169° |
| 2026-04-29 03:28 | -4.00489 | -39.12878 | 19157 ft | 320 kts | 169° |
| 2026-04-29 03:28 | -4.02671 | -39.12457 | 18720 ft | 318 kts | 169° |
| 2026-04-29 03:28 | -4.04809 | -39.12045 | 18282 ft | 316 kts | 169° |
| 2026-04-29 03:28 | -4.06988 | -39.11625 | 17856 ft | 314 kts | 169° |
| 2026-04-29 03:29 | -4.09092 | -39.11219 | 17442 ft | 312 kts | 169° |
| 2026-04-29 03:29 | -4.11217 | -39.10810 | 17004 ft | 310 kts | 169° |
| 2026-04-29 03:29 | -4.13354 | -39.10398 | 16572 ft | 307 kts | 169° |
| 2026-04-29 03:29 | -4.15446 | -39.09995 | 16146 ft | 305 kts | 169° |
| 2026-04-29 03:30 | -4.17517 | -39.09596 | 15724 ft | 303 kts | 169° |
| 2026-04-29 03:30 | -4.19548 | -39.09204 | 15317 ft | 301 kts | 169° |
| 2026-04-29 03:30 | -4.21601 | -39.08809 | 14883 ft | 300 kts | 169° |
| 2026-04-29 03:30 | -4.23644 | -39.08415 | 14463 ft | 298 kts | 169° |
| 2026-04-29 03:31 | -4.27686 | -39.07636 | 13627 ft | 294 kts | 169° |
| 2026-04-29 03:31 | -4.29575 | -39.06910 | 13188 ft | 293 kts | 146° |
| 2026-04-29 03:31 | -4.30978 | -39.05457 | 12742 ft | 292 kts | 121° |
| 2026-04-29 03:32 | -4.31617 | -39.03551 | 12309 ft | 291 kts | 95° |
| 2026-04-29 03:32 | -4.31367 | -39.01553 | 11881 ft | 290 kts | 69° |
| 2026-04-29 03:32 | -4.30302 | -38.99896 | 11451 ft | 289 kts | 43° |
| 2026-04-29 03:32 | -4.28643 | -38.98801 | 11028 ft | 287 kts | 27° |
| 2026-04-29 03:33 | -4.26874 | -38.97891 | 10611 ft | 285 kts | 26° |
| 2026-04-29 03:33 | -4.25116 | -38.96981 | 10204 ft | 283 kts | 27° |
| 2026-04-29 03:33 | -4.23379 | -38.96058 | 9802 ft | 281 kts | 28° |
| 2026-04-29 03:33 | -4.21667 | -38.95126 | 9387 ft | 280 kts | 28° |
| 2026-04-29 03:34 | -4.19968 | -38.94189 | 8970 ft | 278 kts | 28° |
| 2026-04-29 03:34 | -4.18279 | -38.93251 | 8543 ft | 276 kts | 28° |
| 2026-04-29 03:34 | -4.16607 | -38.92321 | 8141 ft | 275 kts | 28° |
| 2026-04-29 03:34 | -4.14943 | -38.91395 | 7735 ft | 273 kts | 28° |
| 2026-04-29 03:35 | -4.13287 | -38.90475 | 7327 ft | 271 kts | 28° |
| 2026-04-29 03:35 | -4.11641 | -38.89561 | 6930 ft | 270 kts | 28° |
| 2026-04-29 03:35 | -4.09940 | -38.88788 | 6521 ft | 268 kts | 18° |
| 2026-04-29 03:35 | -4.08195 | -38.88210 | 6128 ft | 266 kts | 18° |
| 2026-04-29 03:36 | -4.06446 | -38.87623 | 5736 ft | 265 kts | 18° |
| 2026-04-29 03:36 | -4.04702 | -38.87033 | 5348 ft | 264 kts | 18° |
| 2026-04-29 03:36 | -4.02973 | -38.86446 | 4954 ft | 262 kts | 18° |
| 2026-04-29 03:36 | -4.01246 | -38.85860 | 4572 ft | 261 kts | 18° |
| 2026-04-29 03:37 | -3.99549 | -38.85172 | 4182 ft | 259 kts | 27° |
| 2026-04-29 03:37 | -3.98045 | -38.84192 | 3805 ft | 258 kts | 36° |
| 2026-04-29 03:37 | -3.96612 | -38.83154 | 3437 ft | 257 kts | 36° |
| 2026-04-29 03:37 | -3.95153 | -38.82110 | 3205 ft | 249 kts | 35° |
| 2026-04-29 03:38 | -3.93780 | -38.81133 | 3114 ft | 238 kts | 35° |
| 2026-04-29 03:38 | -3.92478 | -38.80209 | 3029 ft | 228 kts | 35° |
| 2026-04-29 03:38 | -3.91201 | -38.79304 | 2875 ft | 222 kts | 35° |
| 2026-04-29 03:38 | -3.89948 | -38.78415 | 2621 ft | 222 kts | 35° |
| 2026-04-29 03:39 | -3.88669 | -38.77507 | 2334 ft | 235 kts | 35° |
| 2026-04-29 03:39 | -3.87262 | -38.76509 | 2259 ft | 247 kts | 35° |
| 2026-04-29 03:39 | -3.85902 | -38.75543 | 2253 ft | 230 kts | 35° |
| 2026-04-29 03:39 | -3.84645 | -38.74651 | 2252 ft | 213 kts | 35° |
| 2026-04-29 03:40 | -3.83486 | -38.73828 | 2252 ft | 198 kts | 35° |
| 2026-04-29 03:40 | -3.82367 | -38.73105 | 2250 ft | 184 kts | 25° |
| 2026-04-29 03:40 | -3.81208 | -38.72702 | 2253 ft | 173 kts | 13° |
| 2026-04-29 03:40 | -3.80018 | -38.72401 | 2266 ft | 173 kts | 14° |
| 2026-04-29 03:41 | -3.78917 | -38.72104 | 2249 ft | 156 kts | 14° |
| 2026-04-29 03:41 | -3.77924 | -38.71829 | 2252 ft | 140 kts | 15° |
| 2026-04-29 03:41 | -3.76983 | -38.71568 | 2256 ft | 142 kts | 14° |
| 2026-04-29 03:41 | -3.76045 | -38.71310 | 2256 ft | 139 kts | 14° |
| 2026-04-29 03:42 | -3.75111 | -38.71053 | 2255 ft | 140 kts | 14° |
| 2026-04-29 03:42 | -3.74214 | -38.70694 | 2251 ft | 140 kts | 37° |
| 2026-04-29 03:42 | -3.73662 | -38.69911 | 2258 ft | 140 kts | 73° |
| 2026-04-29 03:42 | -3.73568 | -38.68953 | 2256 ft | 139 kts | 95° |
| 2026-04-29 03:43 | -3.73724 | -38.68001 | 2255 ft | 138 kts | 104° |
| 2026-04-29 03:43 | -3.73946 | -38.67115 | 2255 ft | 127 kts | 106° |
| 2026-04-29 03:43 | -3.74173 | -38.66255 | 2255 ft | 128 kts | 106° |
| 2026-04-29 03:43 | -3.74401 | -38.65395 | 2243 ft | 128 kts | 106° |
| 2026-04-29 03:44 | -3.74629 | -38.64541 | 2113 ft | 128 kts | 106° |
| 2026-04-29 03:44 | -3.74857 | -38.63682 | 1949 ft | 127 kts | 106° |
| 2026-04-29 03:44 | -3.75084 | -38.62828 | 1784 ft | 127 kts | 106° |
| 2026-04-29 03:44 | -3.75311 | -38.61976 | 1623 ft | 127 kts | 106° |
| 2026-04-29 03:45 | -3.75537 | -38.61125 | 1448 ft | 126 kts | 106° |
| 2026-04-29 03:45 | -3.75763 | -38.60275 | 1287 ft | 126 kts | 106° |
| 2026-04-29 03:45 | -3.75988 | -38.59429 | 1112 ft | 126 kts | 106° |
| 2026-04-29 03:45 | -3.76212 | -38.58589 | 950 ft | 125 kts | 106° |
| 2026-04-29 03:46 | -3.76436 | -38.57746 | 784 ft | 125 kts | 106° |
| 2026-04-29 03:46 | -3.76660 | -38.56903 | 628 ft | 125 kts | 106° |
| 2026-04-29 03:46 | -3.76883 | -38.56065 | 453 ft | 124 kts | 106° |
| 2026-04-29 03:46 | -3.77105 | -38.55230 | 288 ft | 125 kts | 106° |
| 2026-04-29 03:47 | -3.77323 | -38.54393 | 126 ft | 124 kts | 105° |
| 2026-04-29 03:47 | -3.77532 | -38.53621 | 91 ft | 81 kts | 104° |
| 2026-04-29 03:47 | -3.77600 | -38.53382 | 91 ft | 28 kts | 107° |
| 2026-04-29 03:47 | -3.77648 | -38.53173 | 90 ft | 32 kts | 97° |
| 2026-04-29 03:48 | -3.77631 | -38.53054 | 90 ft | 9 kts | 24° |
| 2026-04-29 03:48 | -3.77552 | -38.53022 | 91 ft | 12 kts | 21° |
| 2026-04-29 03:48 | -3.77541 | -38.52997 | 92 ft | 1 kts | 126° |
| 2026-04-29 03:48 | -3.77548 | -38.53000 | 91 ft | 2 kts | 200° |
| 2026-04-29 03:49 | -3.77600 | -38.53040 | 92 ft | 15 kts | 206° |
| 2026-04-29 03:49 | -3.77675 | -38.53099 | 92 ft | 10 kts | 274° |
| 2026-04-29 03:49 | -3.77656 | -38.53192 | 93 ft | 17 kts | 282° |
| 2026-04-29 03:49 | -3.77618 | -38.53331 | 91 ft | 29 kts | 284° |
| 2026-04-29 03:50 | -3.77609 | -38.53539 | 91 ft | 20 kts | 224° |
| 2026-04-29 03:50 | -3.77649 | -38.53536 | 92 ft | 10 kts | 154° |
| 2026-04-29 03:50 | -3.77705 | -38.53548 | 92 ft | 10 kts | 255° |
| 2026-04-29 03:50 | -3.77686 | -38.53637 | 92 ft | 17 kts | 283° |
| 2026-04-29 03:51 | -3.77673 | -38.53769 | 92 ft | 21 kts | 250° |
| 2026-04-29 03:51 | -3.77734 | -38.53895 | 91 ft | 7 kts | 263° |
| 2026-04-29 03:51 | -3.77739 | -38.53915 | 91 ft | 8 kts | 257° |
| 2026-04-29 03:51 | -3.77790 | -38.53954 | 92 ft | 10 kts | 190° |
| 2026-04-29 03:52 | -3.77815 | -38.53964 | 91 ft | 2 kts | 205° |
| 2026-04-29 03:52 | -3.77816 | -38.53965 | 92 ft | 0 kts | 205° |